createdAt,value
2022-12-29T00:01:19.169Z,12.23
2022-12-29T00:03:49.658Z,14.25
2022-12-29T00:06:18.010Z,14.30
2022-12-29T00:08:46.470Z,12.43
2022-12-29T00:11:17.482Z,14.60
2022-12-29T00:14:03.453Z,13.57
2022-12-29T00:16:33.368Z,12.35
2022-12-29T00:19:04.306Z,12.52
2022-12-29T00:21:50.401Z,14.23
2022-12-29T00:24:38.727Z,13.65
2022-12-29T00:27:31.960Z,11.97
2022-12-29T00:30:18.137Z,11.47
2022-12-29T00:33:03.671Z,12.57
2022-12-29T00:35:37.272Z,10.65
2022-12-29T00:38:25.697Z,13.02
2022-12-29T00:41:11.173Z,14.93
2022-12-29T00:43:57.333Z,13.98
2022-12-29T00:46:25.925Z,16.38
2022-12-29T00:49:11.960Z,14.23
2022-12-29T00:51:41.848Z,15.30
2022-12-29T00:54:10.492Z,15.93
2022-12-29T00:56:39.154Z,14.27
2022-12-29T00:59:08.706Z,13.20
2022-12-29T01:01:38.071Z,14.40
2022-12-29T01:04:06.738Z,14.25
2022-12-29T01:06:36.629Z,13.93
2022-12-29T01:09:23.946Z,12.85
2022-12-29T01:11:53.218Z,11.85
2022-12-29T01:14:22.416Z,13.13
2022-12-29T01:16:51.097Z,12.25
2022-12-29T01:19:20.317Z,12.05
2022-12-29T01:21:49.301Z,12.10
2022-12-29T01:24:20.185Z,11.57
2022-12-29T01:26:49.634Z,11.05
2022-12-29T01:29:18.742Z,10.55
2022-12-29T01:31:50.903Z,10.27
2022-12-29T01:34:19.505Z,10.35
2022-12-29T01:36:47.813Z,11.68
2022-12-29T01:39:16.849Z,10.35
2022-12-29T01:41:47.123Z,10.68
2022-12-29T01:45:00.125Z,9.65
2022-12-29T01:47:33.055Z,10.10
2022-12-29T01:50:05.646Z,9.10
2022-12-29T01:52:36.207Z,10.70
2022-12-29T01:55:05.111Z,11.07
2022-12-29T01:57:38.730Z,10.93
2022-12-29T02:00:09.535Z,11.00
2022-12-29T02:02:45.944Z,11.20
2022-12-29T02:05:18.629Z,11.10
2022-12-29T02:07:47.341Z,12.00
2022-12-29T02:10:15.942Z,10.25
2022-12-29T02:12:45.716Z,11.00
2022-12-29T02:15:14.091Z,11.73
2022-12-29T02:17:55.926Z,10.98
2022-12-29T02:21:05.884Z,12.68
2022-12-29T02:24:00.670Z,9.73
2022-12-29T02:26:50.310Z,10.27
2022-12-29T02:29:36.617Z,12.02
2022-12-29T02:32:08.509Z,13.57
2022-12-29T02:34:44.691Z,13.02
2022-12-29T02:37:18.324Z,11.63
2022-12-29T02:39:53.019Z,9.57
2022-12-29T02:42:26.005Z,12.03
2022-12-29T02:44:59.109Z,10.13
2022-12-29T02:47:33.794Z,11.20
2022-12-29T02:50:06.322Z,10.48
2022-12-29T02:52:39.241Z,11.43
2022-12-29T02:55:08.055Z,11.95
2022-12-29T02:57:37.308Z,11.23
2022-12-29T03:00:09.687Z,13.35
2022-12-29T03:03:07.645Z,12.65
2022-12-29T03:05:55.608Z,12.30
2022-12-29T03:08:31.030Z,10.68
2022-12-29T03:11:03.507Z,10.15
2022-12-29T03:13:55.909Z,10.15
2022-12-29T03:16:27.819Z,11.02
2022-12-29T03:19:02.243Z,12.05
2022-12-29T03:21:54.047Z,11.18
2022-12-29T03:24:27.871Z,12.73
2022-12-29T03:27:01.270Z,11.20
2022-12-29T03:29:36.109Z,13.00
2022-12-29T03:32:06.046Z,11.30
2022-12-29T03:34:35.686Z,11.45
2022-12-29T03:37:08.690Z,10.88
2022-12-29T03:39:37.553Z,12.65
2022-12-29T03:42:08.517Z,12.27
2022-12-29T03:44:40.232Z,10.95
2022-12-29T03:47:10.313Z,12.02
2022-12-29T03:49:38.784Z,9.90
2022-12-29T03:52:09.412Z,10.45
2022-12-29T03:54:43.734Z,10.00
2022-12-29T03:57:12.783Z,10.00
2022-12-29T03:59:52.171Z,11.90
2022-12-29T04:02:20.809Z,11.57
2022-12-29T04:04:49.302Z,13.60
2022-12-29T04:07:19.073Z,12.75
2022-12-29T04:09:47.385Z,12.23
2022-12-29T04:12:21.416Z,10.93
2022-12-29T04:14:49.771Z,12.35
2022-12-29T04:17:19.122Z,10.60
2022-12-29T04:19:50.856Z,11.65
2022-12-29T04:22:21.051Z,12.23
2022-12-29T04:24:49.380Z,9.95
2022-12-29T04:27:17.687Z,9.95
2022-12-29T04:30:04.486Z,11.43
2022-12-29T04:32:45.039Z,10.48
2022-12-29T04:35:13.400Z,10.80
2022-12-29T04:37:43.105Z,9.73
2022-12-29T04:40:13.875Z,10.85
2022-12-29T04:42:42.170Z,12.45
2022-12-29T04:45:11.342Z,11.25
2022-12-29T04:47:53.032Z,10.75
2022-12-29T04:50:50.177Z,12.30
2022-12-29T04:53:26.397Z,16.05
2022-12-29T04:55:56.143Z,15.77
2022-12-29T04:58:24.614Z,20.35
2022-12-29T05:00:54.227Z,14.20
2022-12-29T05:03:26.987Z,11.13
2022-12-29T05:05:57.190Z,10.80
2022-12-29T05:08:28.597Z,11.55
2022-12-29T05:10:59.722Z,10.23
2022-12-29T05:13:28.715Z,11.40
2022-12-29T05:15:57.141Z,8.65
2022-12-29T05:18:26.342Z,9.88
2022-12-29T05:20:54.604Z,10.05
2022-12-29T05:23:26.329Z,10.25
2022-12-29T05:26:01.812Z,15.73
2022-12-29T05:28:48.428Z,17.30
2022-12-29T05:31:20.639Z,13.05
2022-12-29T05:33:50.130Z,11.95
2022-12-29T05:36:19.141Z,11.30
2022-12-29T05:38:52.928Z,12.50
2022-12-29T05:41:21.570Z,11.82
2022-12-29T05:44:02.692Z,11.52
2022-12-29T05:46:49.502Z,10.77
2022-12-29T05:49:22.544Z,10.90
2022-12-29T05:52:26.033Z,12.27
2022-12-29T05:54:56.200Z,13.90
2022-12-29T05:57:26.068Z,12.40
2022-12-29T06:00:15.722Z,13.65
2022-12-29T06:02:48.115Z,13.05
2022-12-29T06:05:18.453Z,10.35
2022-12-29T06:07:46.973Z,12.63
2022-12-29T06:10:19.386Z,10.75
2022-12-29T06:12:53.196Z,12.82
2022-12-29T06:15:21.699Z,13.48
2022-12-29T06:17:52.100Z,11.27
2022-12-29T06:20:20.524Z,12.38
2022-12-29T06:22:50.411Z,13.63
2022-12-29T06:25:21.694Z,12.30
2022-12-29T06:27:50.140Z,10.75
2022-12-29T06:30:19.076Z,11.00
2022-12-29T06:32:47.950Z,10.30
2022-12-29T06:35:16.546Z,13.40
2022-12-29T06:37:51.720Z,11.98
2022-12-29T06:40:22.702Z,13.10
2022-12-29T06:43:20.135Z,12.85
2022-12-29T06:46:09.872Z,13.75
2022-12-29T06:48:38.263Z,13.10
2022-12-29T06:51:06.949Z,13.48
2022-12-29T06:53:35.292Z,12.82
2022-12-29T06:56:05.482Z,12.98
2022-12-29T06:58:34.030Z,12.57
2022-12-29T07:01:03.553Z,13.60
2022-12-29T07:03:32.167Z,13.35
2022-12-29T07:06:01.017Z,12.70
2022-12-29T07:08:29.654Z,11.80
2022-12-29T07:10:57.984Z,11.68
2022-12-29T07:13:27.884Z,13.07
2022-12-29T07:15:56.373Z,12.93
2022-12-29T07:18:25.129Z,13.30
2022-12-29T07:20:53.447Z,15.65
2022-12-29T07:23:21.816Z,12.23
2022-12-29T07:25:50.141Z,15.00
2022-12-29T07:28:18.426Z,17.73
2022-12-29T07:30:49.811Z,17.38
2022-12-29T07:33:19.956Z,15.48
2022-12-29T07:35:49.099Z,19.63
2022-12-29T07:38:17.754Z,18.17
2022-12-29T07:40:46.132Z,18.25
2022-12-29T07:43:14.575Z,18.67
2022-12-29T07:45:53.879Z,17.58
2022-12-29T07:48:25.447Z,19.85
2022-12-29T07:50:54.431Z,18.95
2022-12-29T07:53:23.021Z,19.90
2022-12-29T07:55:51.322Z,18.48
2022-12-29T07:58:20.048Z,14.23
2022-12-29T08:00:48.682Z,15.57
2022-12-29T08:03:19.039Z,20.77
2022-12-29T08:05:47.447Z,20.47
2022-12-29T08:08:15.929Z,22.53
2022-12-29T08:10:45.608Z,20.60
2022-12-29T08:13:14.495Z,18.97
2022-12-29T08:15:42.842Z,20.70
2022-12-29T08:18:11.292Z,18.60
2022-12-29T08:20:41.037Z,20.90
2022-12-29T08:23:09.387Z,21.07
2022-12-29T08:25:37.779Z,22.90
2022-12-29T08:28:06.231Z,22.33
2022-12-29T08:30:35.348Z,19.60
2022-12-29T08:33:03.694Z,16.00
2022-12-29T08:35:32.175Z,13.67
2022-12-29T08:38:01.866Z,13.00
2022-12-29T08:40:30.324Z,12.63
2022-12-29T08:42:58.703Z,12.27
2022-12-29T08:45:27.543Z,13.13
2022-12-29T08:47:57.088Z,13.30
2022-12-29T08:50:25.732Z,12.57
2022-12-29T08:52:55.407Z,11.70
2022-12-29T08:55:25.804Z,13.33
2022-12-29T08:57:55.259Z,11.30
2022-12-29T09:00:23.942Z,11.27
2022-12-29T09:02:53.328Z,12.27
2022-12-29T09:05:21.755Z,11.67
2022-12-29T09:07:53.386Z,11.70
2022-12-29T09:10:21.759Z,11.50
2022-12-29T09:12:52.795Z,10.80
2022-12-29T09:15:21.332Z,11.13
2022-12-29T09:17:49.656Z,12.20
2022-12-29T09:20:19.752Z,10.90
2022-12-29T09:22:49.483Z,14.33
2022-12-29T09:25:18.448Z,11.90
2022-12-29T09:27:46.800Z,12.70
2022-12-29T09:30:17.625Z,13.23
2022-12-29T09:32:47.780Z,14.07
2022-12-29T09:35:19.181Z,14.27
2022-12-29T09:37:47.676Z,12.83
2022-12-29T09:40:30.286Z,15.60
2022-12-29T09:43:26.947Z,15.50
2022-12-29T09:46:02.412Z,14.97
2022-12-29T09:48:33.668Z,15.80
2022-12-29T09:51:06.259Z,17.67
2022-12-29T09:53:39.482Z,15.10
2022-12-29T09:56:15.564Z,15.00
2022-12-29T09:58:49.912Z,16.13
2022-12-29T10:01:28.940Z,14.23
2022-12-29T10:03:58.983Z,15.53
2022-12-29T10:06:32.938Z,15.70
2022-12-29T10:09:05.364Z,14.60
2022-12-29T10:11:52.496Z,14.50
2022-12-29T10:14:33.476Z,14.03
2022-12-29T10:17:08.270Z,13.77
2022-12-29T10:19:55.283Z,14.00
2022-12-29T10:22:32.016Z,14.30
2022-12-29T10:25:03.759Z,15.20
2022-12-29T10:27:33.899Z,16.10
2022-12-29T10:30:04.827Z,16.70
2022-12-29T10:32:38.230Z,15.33
2022-12-29T10:35:13.303Z,15.07
2022-12-29T10:37:46.221Z,15.83
2022-12-29T10:40:21.652Z,14.90
2022-12-29T10:42:54.639Z,13.33
2022-12-29T10:45:24.445Z,13.47
2022-12-29T10:47:58.635Z,15.00
2022-12-29T10:50:28.054Z,16.30
2022-12-29T10:52:57.708Z,14.33
2022-12-29T10:55:29.874Z,14.50
2022-12-29T10:58:00.200Z,13.27
2022-12-29T11:00:30.312Z,14.00
2022-12-29T11:03:39.148Z,14.47
2022-12-29T11:06:11.473Z,15.00
2022-12-29T11:08:42.202Z,12.53
2022-12-29T11:11:11.927Z,15.10
2022-12-29T11:13:50.122Z,13.20
2022-12-29T11:16:29.747Z,11.60
2022-12-29T11:19:00.346Z,12.40
2022-12-29T11:21:34.025Z,12.07
2022-12-29T11:24:04.292Z,12.63
2022-12-29T11:26:35.010Z,13.20
2022-12-29T11:29:19.279Z,12.67
2022-12-29T11:31:49.306Z,13.17
2022-12-29T11:34:24.602Z,12.43
2022-12-29T11:36:55.946Z,13.67
2022-12-29T11:39:30.682Z,13.03
2022-12-29T11:41:59.580Z,11.10
2022-12-29T11:44:29.970Z,10.43
2022-12-29T11:46:58.523Z,12.30
2022-12-29T11:49:28.700Z,11.63
2022-12-29T11:51:58.572Z,10.60
2022-12-29T11:54:31.341Z,11.50
2022-12-29T11:57:01.469Z,9.80
2022-12-29T11:59:45.567Z,10.37
2022-12-29T12:02:47.182Z,10.50
2022-12-29T12:05:23.051Z,9.07
2022-12-29T12:07:55.995Z,9.40
2022-12-29T12:10:29.555Z,8.20
2022-12-29T12:13:06.279Z,9.00
2022-12-29T12:15:45.361Z,9.73
2022-12-29T12:18:21.572Z,7.90
2022-12-29T12:20:54.775Z,8.00
2022-12-29T12:23:39.272Z,8.50
2022-12-29T12:26:13.815Z,7.47
2022-12-29T12:28:48.482Z,7.60
2022-12-29T12:31:24.150Z,5.97
2022-12-29T12:33:57.334Z,6.20
2022-12-29T12:36:46.006Z,6.00
2022-12-29T12:39:20.519Z,5.90
2022-12-29T12:41:54.663Z,5.40
2022-12-29T12:44:30.250Z,5.50
2022-12-29T12:47:24.588Z,4.77
2022-12-29T12:50:17.043Z,5.20
2022-12-29T12:53:00.399Z,4.27
2022-12-29T12:55:41.833Z,4.77
2022-12-29T12:58:16.589Z,4.57
2022-12-29T13:00:53.607Z,4.17
2022-12-29T13:03:29.805Z,4.60
2022-12-29T13:06:09.761Z,4.53
2022-12-29T13:09:13.957Z,4.53
2022-12-29T13:11:53.468Z,3.90
2022-12-29T13:14:31.133Z,4.83
2022-12-29T13:17:03.682Z,3.23
2022-12-29T13:19:35.578Z,5.13
2022-12-29T13:22:09.307Z,4.73
2022-12-29T13:24:49.614Z,4.80
2022-12-29T13:27:27.831Z,4.93
2022-12-29T13:30:04.689Z,4.40
2022-12-29T13:32:52.064Z,3.80
2022-12-29T13:35:38.256Z,4.30
2022-12-29T13:38:12.845Z,5.70
2022-12-29T13:40:43.302Z,5.40
2022-12-29T13:43:44.300Z,5.23
2022-12-29T13:47:10.567Z,5.10
2022-12-29T13:50:25.728Z,4.40
2022-12-29T13:53:11.392Z,4.30
2022-12-29T13:56:01.620Z,4.77
2022-12-29T13:58:38.999Z,5.73
2022-12-29T14:01:16.977Z,4.23
2022-12-29T14:03:57.546Z,4.10
2022-12-29T14:06:42.451Z,4.57
2022-12-29T14:09:40.353Z,4.43
2022-12-29T14:16:40.566Z,4.60
2022-12-29T14:19:44.743Z,5.03
2022-12-29T14:23:00.821Z,5.87
2022-12-29T14:26:07.885Z,4.60
2022-12-29T14:28:39.626Z,5.23
2022-12-29T14:31:36.099Z,5.70
2022-12-29T14:34:33.085Z,5.30
2022-12-29T14:37:02.908Z,5.60
2022-12-29T14:39:35.113Z,5.03
2022-12-29T14:42:05.050Z,6.17
2022-12-29T14:44:33.894Z,5.30
2022-12-29T14:47:07.878Z,6.20
2022-12-29T14:49:44.361Z,6.17
2022-12-29T14:52:19.569Z,6.83
2022-12-29T14:54:56.108Z,7.60
2022-12-29T14:57:29.437Z,7.70
2022-12-29T15:00:01.751Z,5.83
2022-12-29T15:02:38.326Z,6.77
2022-12-29T15:05:08.072Z,7.67
2022-12-29T15:07:36.799Z,8.07
2022-12-29T15:10:08.729Z,7.90
2022-12-29T15:12:43.825Z,7.80
2022-12-29T15:15:24.264Z,8.30
2022-12-29T15:17:54.461Z,9.70
2022-12-29T15:20:28.106Z,7.60
2022-12-29T15:23:03.535Z,7.03
2022-12-29T15:25:33.561Z,7.30
2022-12-29T15:28:03.600Z,6.23
2022-12-29T15:30:32.279Z,8.10
2022-12-29T15:33:08.020Z,6.80
2022-12-29T15:35:37.907Z,5.13
2022-12-29T15:38:16.979Z,4.30
2022-12-29T15:40:46.280Z,4.50
2022-12-29T15:43:41.956Z,4.20
2022-12-29T15:46:13.939Z,6.00
2022-12-29T15:48:44.894Z,5.87
2022-12-29T15:51:22.021Z,5.53
2022-12-29T15:53:51.848Z,5.80
2022-12-29T15:56:20.823Z,6.87
2022-12-29T15:58:52.222Z,6.60
2022-12-29T16:01:22.217Z,7.40
2022-12-29T16:03:53.107Z,6.43
2022-12-29T16:06:29.885Z,7.80
2022-12-29T16:08:59.473Z,7.00
2022-12-29T16:11:33.125Z,7.70
2022-12-29T16:14:01.823Z,7.57
2022-12-29T16:16:32.568Z,7.93
2022-12-29T16:19:04.683Z,8.37
2022-12-29T16:21:35.974Z,7.77
2022-12-29T16:24:07.975Z,8.73
2022-12-29T16:26:36.392Z,10.20
2022-12-29T16:29:08.766Z,10.13
2022-12-29T16:31:38.640Z,10.80
2022-12-29T16:34:24.088Z,9.37
2022-12-29T16:36:58.401Z,8.80
2022-12-29T16:39:30.154Z,11.30
2022-12-29T16:42:00.861Z,9.67
2022-12-29T16:44:30.784Z,9.40
2022-12-29T16:47:20.866Z,7.70
2022-12-29T16:49:54.165Z,7.80
2022-12-29T16:52:26.989Z,7.97
2022-12-29T16:54:57.485Z,8.37
2022-12-29T16:57:31.499Z,8.87
2022-12-29T17:00:02.102Z,8.90
2022-12-29T17:02:33.111Z,8.00
2022-12-29T17:05:05.280Z,6.50
2022-12-29T17:07:33.751Z,6.40
2022-12-29T17:10:02.228Z,4.80
2022-12-29T17:12:32.159Z,5.50
2022-12-29T17:15:02.056Z,4.03
2022-12-29T17:17:35.824Z,5.30
2022-12-29T17:20:08.482Z,7.73
2022-12-29T17:22:37.392Z,6.13
2022-12-29T17:25:06.583Z,6.80
2022-12-29T17:27:38.653Z,6.13
2022-12-29T17:30:12.350Z,6.40
2022-12-29T17:32:41.939Z,7.00
2022-12-29T17:35:17.106Z,6.50
2022-12-29T17:37:45.893Z,6.53
2022-12-29T17:40:16.502Z,6.60
2022-12-29T17:42:47.316Z,7.43
2022-12-29T17:45:18.116Z,8.33
2022-12-29T17:47:46.501Z,7.50
2022-12-29T17:50:17.919Z,8.80
2022-12-29T17:52:49.251Z,8.60
2022-12-29T17:55:19.734Z,9.80
2022-12-29T17:57:48.407Z,9.20
2022-12-29T18:00:18.826Z,9.40
2022-12-29T18:02:50.225Z,11.13
2022-12-29T18:05:22.563Z,10.40
2022-12-29T18:07:53.572Z,9.80
2022-12-29T18:10:22.993Z,9.80
2022-12-29T18:12:53.069Z,9.33
2022-12-29T18:15:29.685Z,10.20
2022-12-29T18:18:04.096Z,9.70
2022-12-29T18:20:36.740Z,10.10
2022-12-29T18:23:08.623Z,11.50
2022-12-29T18:25:41.813Z,10.43
2022-12-29T18:28:10.452Z,11.70
2022-12-29T18:30:39.495Z,12.80
2022-12-29T18:33:08.493Z,11.10
2022-12-29T18:35:43.642Z,11.30
2022-12-29T18:38:13.703Z,11.93
2022-12-29T18:40:43.224Z,11.30
2022-12-29T18:43:12.684Z,11.40
2022-12-29T18:45:41.306Z,11.17
2022-12-29T18:48:16.641Z,9.70
2022-12-29T18:50:49.231Z,9.40
2022-12-29T18:53:18.692Z,10.03
2022-12-29T18:55:47.727Z,9.93
2022-12-29T18:58:16.681Z,4.63
2022-12-29T19:00:45.703Z,6.37
2022-12-29T19:03:15.846Z,6.40
2022-12-29T19:05:48.924Z,5.23
2022-12-29T19:08:17.749Z,6.00
2022-12-29T19:10:46.877Z,5.27
2022-12-29T19:13:18.440Z,6.50
2022-12-29T19:15:47.785Z,2.87
2022-12-29T19:21:11.090Z,4.50
2022-12-29T19:23:39.900Z,6.97
2022-12-29T19:26:11.000Z,7.43
2022-12-29T19:28:40.865Z,7.10
2022-12-29T19:31:10.748Z,7.40
2022-12-29T19:33:40.299Z,7.40
2022-12-29T19:36:17.070Z,7.87
2022-12-29T19:38:46.316Z,7.70
2022-12-29T19:41:15.545Z,6.53
2022-12-29T19:43:45.175Z,5.73
2022-12-29T19:46:17.606Z,8.07
2022-12-29T19:48:46.535Z,7.23
2022-12-29T19:51:18.485Z,6.10
2022-12-29T19:53:47.778Z,4.60
2022-12-29T19:56:16.760Z,6.03
2022-12-29T19:58:47.784Z,5.83
2022-12-29T20:01:18.425Z,5.40
2022-12-29T20:03:48.945Z,4.40
2022-12-29T20:06:19.262Z,7.70
2022-12-29T20:08:48.444Z,6.50
2022-12-29T20:11:19.419Z,9.27
2022-12-29T20:13:48.421Z,15.93
2022-12-29T20:16:22.537Z,13.67
2022-12-29T20:18:51.884Z,18.53
2022-12-29T20:21:23.432Z,16.70
2022-12-29T20:23:52.962Z,17.43
2022-12-29T20:26:23.729Z,15.77
2022-12-29T20:28:52.805Z,15.83
2022-12-29T20:31:25.755Z,17.07
2022-12-29T20:33:54.459Z,17.73
2022-12-29T20:36:26.405Z,20.60
2022-12-29T20:38:55.547Z,20.03
2022-12-29T20:41:24.161Z,19.37
2022-12-29T20:43:53.293Z,15.93
2022-12-29T20:46:26.409Z,16.60
2022-12-29T20:48:59.910Z,14.10
2022-12-29T20:51:59.295Z,14.70
2022-12-29T20:54:20.010Z,16.27
2022-12-29T20:56:48.968Z,14.67
2022-12-29T20:59:27.454Z,13.67
2022-12-29T21:01:57.532Z,14.00
2022-12-29T21:04:26.540Z,15.20
2022-12-29T21:06:56.614Z,12.97
2022-12-29T21:09:25.107Z,13.20
2022-12-29T21:11:53.825Z,9.47
2022-12-29T21:14:22.847Z,9.63
2022-12-29T21:16:51.402Z,5.67
2022-12-29T21:19:19.737Z,3.28
2022-12-29T21:21:48.028Z,5.73
2022-12-29T21:24:19.927Z,2.90
2022-12-29T21:26:48.750Z,5.40
2022-12-29T21:29:18.123Z,6.60
2022-12-29T21:31:49.108Z,4.93
2022-12-29T21:34:17.842Z,5.03
2022-12-29T21:36:46.301Z,5.40
2022-12-29T21:39:16.483Z,7.10
2022-12-29T21:41:47.671Z,3.93
2022-12-29T21:44:33.745Z,1.27
2022-12-29T21:47:02.365Z,3.17
2022-12-29T21:49:30.710Z,3.40
2022-12-29T21:51:59.288Z,2.80
2022-12-29T21:54:46.241Z,3.83
2022-12-29T21:57:38.116Z,3.67
2022-12-29T22:00:26.143Z,4.60
2022-12-29T22:03:20.063Z,2.30
2022-12-29T22:06:08.376Z,2.10
2022-12-29T22:08:54.010Z,4.47
2022-12-29T22:11:40.006Z,2.83
2022-12-29T22:14:09.811Z,2.50
2022-12-29T22:16:38.408Z,5.60
2022-12-29T22:19:07.983Z,4.40
2022-12-29T22:21:36.427Z,5.13
2022-12-29T22:24:04.832Z,4.63
2022-12-29T22:26:33.241Z,3.03
2022-12-29T22:29:04.020Z,4.60
2022-12-29T22:31:33.999Z,4.30
2022-12-29T22:34:03.922Z,4.80
2022-12-29T22:36:33.548Z,11.80
2022-12-29T22:39:02.130Z,13.63
2022-12-29T22:41:30.433Z,16.70
2022-12-29T22:43:58.722Z,17.57
2022-12-29T22:46:27.144Z,24.37
2022-12-29T22:48:57.849Z,28.47
2022-12-29T22:51:26.416Z,23.07
2022-12-29T22:53:54.934Z,21.17
2022-12-29T22:56:23.263Z,17.73
2022-12-29T22:58:51.634Z,17.00
2022-12-29T23:01:22.714Z,16.00
2022-12-29T23:03:51.416Z,17.80
2022-12-29T23:06:21.347Z,17.50
2022-12-29T23:08:49.751Z,16.57
2022-12-29T23:11:18.235Z,17.47
2022-12-29T23:13:46.999Z,17.67
2022-12-29T23:16:16.481Z,16.70
2022-12-29T23:18:45.168Z,16.47
2022-12-29T23:21:13.737Z,14.70
2022-12-29T23:23:56.248Z,14.45
2022-12-29T23:26:28.424Z,13.23
2022-12-29T23:29:00.326Z,14.13
2022-12-29T23:31:29.422Z,12.03
2022-12-29T23:33:58.086Z,12.67
2022-12-29T23:36:26.447Z,12.65
2022-12-29T23:38:57.063Z,14.03
2022-12-29T23:41:25.699Z,13.73
2022-12-29T23:43:54.039Z,13.80
2022-12-29T23:46:23.987Z,12.57
2022-12-29T23:48:52.541Z,11.25
2022-12-29T23:51:20.999Z,12.07
2022-12-29T23:53:49.628Z,10.40
2022-12-29T23:56:21.682Z,10.13
2022-12-29T23:58:50.547Z,9.53
